createdAt,value
2018-06-04T00:00:13.763Z,15.90
2018-06-04T00:02:48.759Z,15.90
2018-06-04T00:05:23.938Z,15.80
2018-06-04T00:07:59.277Z,15.80
2018-06-04T00:10:34.374Z,15.70
2018-06-04T00:15:44.392Z,15.70
2018-06-04T00:18:19.391Z,15.70
2018-06-04T00:20:54.440Z,15.80
2018-06-04T00:23:29.599Z,15.80
2018-06-04T00:26:04.815Z,15.70
2018-06-04T00:28:44.261Z,15.80
2018-06-04T00:31:26.349Z,15.80
2018-06-04T00:34:01.514Z,15.70
2018-06-04T00:36:36.871Z,15.80
2018-06-04T00:39:12.809Z,15.80
2018-06-04T00:41:49.379Z,15.70
2018-06-04T00:44:24.616Z,15.80
2018-06-04T00:46:59.751Z,15.70
2018-06-04T00:49:35.076Z,15.70
2018-06-04T00:52:10.227Z,15.80
2018-06-04T00:54:45.569Z,15.70
2018-06-04T00:57:20.900Z,15.70
2018-06-04T00:59:55.990Z,15.80
2018-06-04T01:02:31.334Z,15.70
2018-06-04T01:05:06.269Z,15.80
2018-06-04T01:07:41.368Z,15.80
2018-06-04T01:10:16.534Z,15.80
2018-06-04T01:12:51.446Z,15.70
2018-06-04T01:15:26.757Z,15.70
2018-06-04T01:18:01.823Z,15.70
2018-06-04T01:20:37.061Z,15.70
2018-06-04T01:23:12.406Z,15.70
2018-06-04T01:25:47.954Z,15.70
2018-06-04T01:28:23.106Z,15.70
2018-06-04T01:30:59.050Z,15.70
2018-06-04T01:33:34.044Z,15.70
2018-06-04T01:36:09.526Z,15.70
2018-06-04T01:38:44.663Z,15.70
2018-06-04T01:41:19.676Z,15.70
2018-06-04T01:43:54.836Z,15.70
2018-06-04T01:46:29.652Z,15.70
2018-06-04T01:49:04.937Z,15.70
2018-06-04T01:51:39.738Z,15.70
2018-06-04T01:54:14.878Z,15.60
2018-06-04T01:56:50.832Z,15.60
2018-06-04T01:59:25.988Z,15.60
2018-06-04T02:02:01.157Z,15.70
2018-06-04T02:04:36.349Z,15.60
2018-06-04T02:07:11.543Z,15.60
2018-06-04T02:09:46.932Z,15.70
2018-06-04T02:12:22.371Z,15.70
2018-06-04T02:14:57.364Z,15.70
2018-06-04T02:17:32.605Z,15.70
2018-06-04T02:20:08.324Z,15.60
2018-06-04T02:25:18.403Z,15.60
2018-06-04T02:27:53.758Z,15.60
2018-06-04T02:30:29.379Z,15.60
2018-06-04T02:33:04.743Z,15.50
2018-06-04T02:35:39.767Z,15.50
2018-06-04T02:38:15.238Z,15.50
2018-06-04T02:40:50.833Z,15.60
2018-06-04T02:43:25.941Z,15.60
2018-06-04T02:46:01.230Z,15.60
2018-06-04T02:48:36.865Z,15.60
2018-06-04T02:51:12.029Z,15.60
2018-06-04T02:53:47.238Z,15.60
2018-06-04T02:56:22.712Z,15.60
2018-06-04T02:58:58.413Z,15.60
2018-06-04T03:01:33.669Z,15.60
2018-06-04T03:04:08.980Z,15.60
2018-06-04T03:06:44.635Z,15.50
2018-06-04T03:09:19.749Z,15.60
2018-06-04T03:11:55.304Z,15.60
2018-06-04T03:14:30.527Z,15.70
2018-06-04T03:17:06.095Z,15.70
2018-06-04T03:19:41.376Z,15.70
2018-06-04T03:22:16.904Z,15.70
2018-06-04T03:24:51.995Z,15.70
2018-06-04T03:27:27.200Z,15.70
2018-06-04T03:30:02.126Z,15.70
2018-06-04T03:32:37.349Z,15.70
2018-06-04T03:35:12.306Z,15.60
2018-06-04T03:37:47.412Z,15.60
2018-06-04T03:40:22.543Z,15.70
2018-06-04T03:42:57.921Z,15.70
2018-06-04T03:48:08.337Z,15.70
2018-06-04T03:50:43.541Z,15.70
2018-06-04T03:53:18.594Z,15.70
2018-06-04T03:55:54.709Z,15.70
2018-06-04T03:58:29.940Z,15.80
2018-06-04T04:01:04.872Z,15.80
2018-06-04T04:03:40.713Z,15.80
2018-06-04T04:06:15.797Z,15.90
2018-06-04T04:08:50.832Z,15.90
2018-06-04T04:11:26.689Z,15.90
2018-06-04T04:14:01.640Z,15.90
2018-06-04T04:16:39.111Z,15.90
2018-06-04T04:19:13.846Z,15.80
2018-06-04T04:21:48.989Z,16.00
2018-06-04T04:24:24.321Z,16.00
2018-06-04T04:26:59.494Z,16.00
2018-06-04T04:29:34.704Z,16.00
2018-06-04T04:32:09.665Z,16.00
2018-06-04T04:34:44.860Z,15.90
2018-06-04T04:37:20.287Z,15.90
2018-06-04T04:39:55.381Z,15.80
2018-06-04T04:42:30.717Z,15.90
2018-06-04T04:45:05.864Z,15.90
2018-06-04T04:47:40.894Z,16.00
2018-06-04T04:50:17.068Z,16.10
2018-06-04T04:52:52.236Z,16.10
2018-06-04T04:55:27.247Z,16.10
2018-06-04T04:58:03.633Z,16.20
2018-06-04T05:00:39.218Z,16.10
2018-06-04T05:03:14.548Z,16.10
2018-06-04T05:05:49.760Z,16.10
2018-06-04T05:08:24.873Z,16.20
2018-06-04T05:11:00.880Z,16.20
2018-06-04T05:13:36.456Z,16.30
2018-06-04T05:16:11.398Z,16.30
2018-06-04T05:18:46.747Z,16.40
2018-06-04T05:21:22.422Z,16.40
2018-06-04T05:23:57.579Z,16.50
2018-06-04T05:26:32.924Z,16.60
2018-06-04T05:29:08.156Z,16.70
2018-06-04T05:34:19.222Z,16.70
2018-06-04T05:36:54.366Z,16.70
2018-06-04T05:39:29.412Z,16.80
2018-06-04T05:42:05.089Z,16.90
2018-06-04T05:44:40.391Z,16.90
2018-06-04T05:49:50.513Z,17.20
2018-06-04T05:55:06.570Z,17.30
2018-06-04T05:57:44.837Z,17.40
2018-06-04T06:00:20.385Z,17.40
2018-06-04T06:02:55.894Z,17.50
2018-06-04T06:05:37.658Z,17.60
2018-06-04T06:08:13.228Z,17.70
2018-06-04T06:10:48.237Z,17.70
2018-06-04T06:13:23.857Z,17.70
2018-06-04T06:15:59.870Z,17.70
2018-06-04T06:18:34.966Z,17.80
2018-06-04T06:21:10.131Z,18.00
2018-06-04T06:23:45.829Z,18.10
2018-06-04T06:26:21.078Z,18.10
2018-06-04T06:28:56.620Z,18.10
2018-06-04T06:31:31.395Z,18.20
2018-06-04T06:34:06.385Z,18.40
2018-06-04T06:36:41.321Z,18.30
2018-06-04T06:39:17.132Z,18.40
2018-06-04T06:41:52.292Z,18.40
2018-06-04T06:44:27.555Z,18.40
2018-06-04T06:47:02.690Z,18.40
2018-06-04T06:49:37.724Z,18.50
2018-06-04T06:52:12.907Z,18.60
2018-06-04T06:54:48.315Z,18.60
2018-06-04T06:57:23.434Z,18.50
2018-06-04T06:59:58.863Z,18.50
2018-06-04T07:02:33.592Z,18.60
2018-06-04T07:05:08.822Z,18.50
2018-06-04T07:07:43.819Z,18.60
2018-06-04T07:10:19.357Z,18.70
2018-06-04T07:12:55.433Z,18.60
2018-06-04T07:15:30.853Z,18.70
2018-06-04T07:18:05.987Z,18.80
2018-06-04T07:20:41.220Z,18.80
2018-06-04T07:25:51.426Z,19.00
2018-06-04T07:28:26.621Z,19.00
2018-06-04T07:33:36.559Z,19.00
2018-06-04T07:36:12.697Z,19.00
2018-06-04T07:38:47.831Z,19.00
2018-06-04T07:41:22.871Z,19.00
2018-06-04T07:43:57.707Z,19.10
2018-06-04T07:46:32.971Z,19.20
2018-06-04T07:49:08.099Z,19.40
2018-06-04T07:51:43.176Z,19.40
2018-06-04T07:54:18.115Z,19.20
2018-06-04T07:56:53.144Z,19.30
2018-06-04T07:59:28.154Z,19.40
2018-06-04T08:02:02.947Z,19.60
2018-06-04T08:04:38.318Z,19.90
2018-06-04T08:07:13.187Z,19.90
2018-06-04T08:09:48.834Z,20.10
2018-06-04T08:12:23.765Z,20.00
2018-06-04T08:14:58.845Z,20.30
2018-06-04T08:17:33.831Z,20.50
2018-06-04T08:22:43.424Z,20.70
2018-06-04T08:25:18.216Z,20.90
2018-06-04T08:27:54.242Z,20.90
2018-06-04T08:30:28.896Z,20.80
2018-06-04T08:33:03.558Z,20.70
2018-06-04T08:35:38.147Z,20.90
2018-06-04T08:38:12.867Z,21.10
2018-06-04T08:40:47.633Z,21.20
2018-06-04T08:43:22.443Z,21.30
2018-06-04T08:45:58.043Z,21.40
2018-06-04T08:48:32.875Z,21.30
2018-06-04T08:51:07.664Z,21.30
2018-06-04T08:53:42.322Z,21.30
2018-06-04T08:56:17.124Z,21.40
2018-06-04T08:58:51.849Z,21.70
2018-06-04T09:01:26.531Z,21.80
2018-06-04T09:04:01.337Z,21.90
2018-06-04T09:06:36.432Z,22.40
2018-06-04T09:09:11.569Z,23.10
2018-06-04T09:11:46.580Z,23.40
2018-06-04T09:14:21.587Z,23.60
2018-06-04T09:19:31.378Z,23.40
2018-06-04T09:22:06.520Z,23.40
2018-06-04T09:24:41.677Z,23.40
2018-06-04T09:27:17.136Z,23.50
2018-06-04T09:29:51.915Z,23.30
2018-06-04T09:32:27.059Z,23.30
2018-06-04T09:35:02.330Z,23.50
2018-06-04T09:37:37.507Z,23.60
2018-06-04T09:40:12.356Z,23.60
2018-06-04T09:42:47.495Z,23.80
2018-06-04T09:45:22.621Z,24.00
2018-06-04T09:47:57.742Z,24.30
2018-06-04T09:50:32.862Z,24.10
2018-06-04T09:53:07.980Z,23.50
2018-06-04T09:55:43.080Z,23.80
2018-06-04T09:58:18.134Z,24.10
2018-06-04T10:00:53.691Z,24.20
2018-06-04T10:03:29.351Z,24.80
2018-06-04T10:06:05.616Z,25.00
2018-06-04T10:08:40.715Z,25.00
2018-06-04T10:11:16.192Z,25.00
2018-06-04T10:13:51.604Z,25.00
2018-06-04T10:16:27.036Z,25.20
2018-06-04T10:19:02.080Z,25.30
2018-06-04T10:21:37.345Z,25.20
2018-06-04T10:24:12.535Z,25.00
2018-06-04T10:26:47.528Z,24.70
2018-06-04T10:29:22.473Z,24.60
2018-06-04T10:31:57.580Z,24.90
2018-06-04T10:34:32.817Z,24.90
2018-06-04T10:37:07.891Z,25.00
2018-06-04T10:39:42.699Z,25.00
2018-06-04T10:42:24.211Z,25.00
2018-06-04T10:44:59.072Z,24.90
2018-06-04T10:47:34.265Z,24.80
2018-06-04T10:50:10.708Z,25.00
2018-06-04T10:52:45.772Z,24.90
2018-06-04T10:55:20.644Z,25.20
2018-06-04T10:57:55.404Z,25.40
2018-06-04T11:00:30.313Z,25.60
2018-06-04T11:03:05.238Z,25.80
2018-06-04T11:08:14.735Z,26.10
2018-06-04T11:10:49.678Z,26.30
2018-06-04T11:15:58.957Z,28.10
2018-06-04T11:18:33.794Z,28.30
2018-06-04T11:21:08.699Z,28.30
2018-06-04T11:23:43.486Z,28.20
2018-06-04T11:26:18.568Z,28.20
2018-06-04T11:28:53.486Z,28.00
2018-06-04T11:31:28.398Z,28.20
2018-06-04T11:34:03.272Z,29.00
2018-06-04T11:36:38.094Z,28.20
2018-06-04T11:39:12.939Z,28.40
2018-06-04T11:41:47.699Z,29.20
2018-06-04T11:44:22.611Z,29.20
2018-06-04T11:46:57.587Z,29.40
2018-06-04T11:49:32.482Z,29.50
2018-06-04T11:52:07.575Z,29.70
2018-06-04T11:54:42.351Z,28.50
2018-06-04T11:57:17.197Z,28.30
2018-06-04T11:59:52.067Z,28.70
2018-06-04T12:02:27.196Z,29.00
2018-06-04T12:05:02.257Z,28.10
2018-06-04T12:07:36.979Z,27.20
2018-06-04T12:10:11.744Z,29.60
2018-06-04T12:12:46.594Z,32.40
2018-06-04T12:15:21.629Z,31.70
2018-06-04T12:17:56.307Z,29.60
2018-06-04T12:20:32.117Z,29.00
2018-06-04T12:23:06.851Z,28.30
2018-06-04T12:25:41.523Z,28.70
2018-06-04T12:28:16.172Z,32.60
2018-06-04T12:30:51.278Z,31.50
2018-06-04T12:33:26.252Z,30.30
2018-06-04T12:36:00.996Z,29.40
2018-06-04T12:38:36.037Z,28.40
2018-06-04T12:41:11.057Z,28.10
2018-06-04T12:43:45.791Z,28.90
2018-06-04T12:46:20.672Z,31.70
2018-06-04T12:48:55.524Z,33.50
2018-06-04T12:51:30.384Z,34.40
2018-06-04T12:54:05.313Z,35.00
2018-06-04T12:56:40.256Z,33.90
2018-06-04T12:59:14.984Z,34.20
2018-06-04T13:01:50.013Z,34.10
2018-06-04T13:04:25.120Z,34.10
2018-06-04T13:06:59.720Z,33.30
2018-06-04T13:09:34.910Z,34.00
2018-06-04T13:12:09.993Z,33.80
2018-06-04T13:14:44.940Z,34.30
2018-06-04T13:19:54.250Z,33.80
2018-06-04T13:25:04.599Z,34.40
2018-06-04T13:27:40.410Z,34.40
2018-06-04T13:30:15.400Z,34.30
2018-06-04T13:32:50.652Z,33.90
2018-06-04T13:35:25.531Z,33.40
2018-06-04T13:38:00.442Z,33.30
2018-06-04T13:40:35.635Z,34.10
2018-06-04T13:43:10.964Z,34.10
2018-06-04T13:45:45.889Z,33.90
2018-06-04T13:48:21.278Z,34.20
2018-06-04T13:50:56.341Z,33.80
2018-06-04T13:53:31.487Z,33.70
2018-06-04T13:56:06.407Z,33.30
2018-06-04T13:58:41.439Z,33.30
2018-06-04T14:01:16.370Z,32.50
2018-06-04T14:03:51.655Z,31.70
2018-06-04T14:06:26.410Z,31.20
2018-06-04T14:09:01.615Z,31.50
2018-06-04T14:11:37.019Z,31.40
2018-06-04T14:14:12.263Z,31.10
2018-06-04T14:16:47.299Z,30.20
2018-06-04T14:19:28.769Z,29.80
2018-06-04T14:22:03.718Z,29.80
2018-06-04T14:24:39.803Z,29.80
2018-06-04T14:27:14.640Z,29.40
2018-06-04T14:29:49.376Z,29.10
2018-06-04T14:32:24.341Z,28.90
2018-06-04T14:34:59.224Z,28.90
2018-06-04T14:37:34.345Z,28.80
2018-06-04T14:40:10.473Z,28.40
2018-06-04T14:45:20.745Z,27.60
2018-06-04T14:47:55.734Z,27.80
2018-06-04T14:50:30.517Z,27.90
2018-06-04T14:53:05.824Z,27.30
2018-06-04T14:55:40.932Z,27.10
2018-06-04T14:58:16.041Z,27.20
2018-06-04T15:00:51.207Z,27.10
2018-06-04T15:03:26.161Z,27.00
2018-06-04T15:06:00.909Z,26.80
2018-06-04T15:08:36.312Z,26.50
2018-06-04T15:11:11.825Z,26.20
2018-06-04T15:13:47.065Z,25.80
2018-06-04T15:16:21.976Z,25.70
2018-06-04T15:18:56.734Z,25.70
2018-06-04T15:21:31.681Z,25.70
2018-06-04T15:24:06.819Z,25.60
2018-06-04T15:26:42.091Z,25.40
2018-06-04T15:29:17.496Z,25.40
2018-06-04T15:31:52.221Z,25.30
2018-06-04T15:34:27.258Z,25.40
2018-06-04T15:37:02.982Z,25.20
2018-06-04T15:39:38.431Z,25.20
2018-06-04T15:42:14.389Z,25.10
2018-06-04T15:44:49.962Z,24.90
2018-06-04T15:47:25.269Z,24.90
2018-06-04T15:50:00.325Z,24.90
2018-06-04T15:52:36.682Z,24.90
2018-06-04T15:55:11.584Z,25.00
2018-06-04T15:57:46.633Z,24.80
2018-06-04T16:00:21.834Z,24.80
2018-06-04T16:02:56.688Z,24.50
2018-06-04T16:05:31.852Z,24.70
2018-06-04T16:08:06.817Z,24.50
2018-06-04T16:10:41.848Z,23.90
2018-06-04T16:13:17.173Z,23.60
2018-06-04T16:15:52.387Z,23.40
2018-06-04T16:18:28.147Z,23.70
2018-06-04T16:21:04.483Z,23.70
2018-06-04T16:23:40.429Z,23.50
2018-06-04T16:26:15.454Z,23.60
2018-06-04T16:28:50.645Z,23.60
2018-06-04T16:31:26.368Z,23.70
2018-06-04T16:34:01.467Z,23.50
2018-06-04T16:36:36.741Z,23.10
2018-06-04T16:39:11.791Z,23.20
2018-06-04T16:41:47.194Z,22.90
2018-06-04T16:44:22.190Z,22.70
2018-06-04T16:46:57.170Z,22.60
2018-06-04T16:49:32.353Z,22.70
2018-06-04T16:52:07.428Z,22.30
2018-06-04T16:54:44.165Z,22.30
2018-06-04T16:57:19.721Z,22.60
2018-06-04T16:59:54.888Z,22.70
2018-06-04T17:02:30.538Z,22.60
2018-06-04T17:05:06.010Z,22.50
2018-06-04T17:07:41.096Z,22.50
2018-06-04T17:10:16.595Z,22.60
2018-06-04T17:12:51.906Z,22.90
2018-06-04T17:15:27.804Z,22.40
2018-06-04T17:18:02.822Z,22.40
2018-06-04T17:20:37.914Z,22.30
2018-06-04T17:23:13.688Z,21.70
2018-06-04T17:25:48.963Z,22.00
2018-06-04T17:28:23.989Z,22.00
2018-06-04T17:30:59.832Z,22.00
2018-06-04T17:33:35.253Z,22.10
2018-06-04T17:36:10.556Z,21.70
2018-06-04T17:38:45.449Z,22.00
2018-06-04T17:41:20.765Z,21.50
2018-06-04T17:43:55.909Z,21.30
2018-06-04T17:46:31.092Z,21.40
2018-06-04T17:49:06.480Z,21.20
2018-06-04T17:51:41.509Z,21.30
2018-06-04T17:54:16.574Z,20.90
2018-06-04T17:56:51.758Z,21.10
2018-06-04T17:59:27.005Z,21.00
2018-06-04T18:02:02.162Z,20.60
2018-06-04T18:04:37.387Z,20.50
2018-06-04T18:07:12.245Z,20.80
2018-06-04T18:09:47.389Z,20.90
2018-06-04T18:12:23.174Z,20.80
2018-06-04T18:14:58.173Z,20.70
2018-06-04T18:17:33.110Z,20.60
2018-06-04T18:20:08.221Z,20.50
2018-06-04T18:22:43.221Z,20.10
2018-06-04T18:25:18.532Z,20.20
2018-06-04T18:27:53.558Z,19.90
2018-06-04T18:30:28.588Z,20.30
2018-06-04T18:33:03.708Z,20.30
2018-06-04T18:35:38.835Z,19.80
2018-06-04T18:38:13.879Z,19.70
2018-06-04T18:40:49.094Z,19.50
2018-06-04T18:43:24.946Z,19.70
2018-06-04T18:46:00.958Z,19.70
2018-06-04T18:48:36.031Z,19.70
2018-06-04T18:51:11.253Z,19.80
2018-06-04T18:53:47.625Z,19.50
2018-06-04T18:56:22.682Z,19.50
2018-06-04T18:58:57.784Z,19.50
2018-06-04T19:01:33.448Z,19.50
2018-06-04T19:04:08.524Z,19.30
2018-06-04T19:06:43.611Z,19.30
2018-06-04T19:09:18.953Z,19.40
2018-06-04T19:11:54.034Z,19.70
2018-06-04T19:14:29.833Z,19.50
2018-06-04T19:17:04.993Z,19.30
2018-06-04T19:19:40.805Z,19.30
2018-06-04T19:22:15.984Z,19.20
2018-06-04T19:24:50.989Z,19.00
2018-06-04T19:27:26.332Z,18.90
2018-06-04T19:30:01.574Z,18.70
2018-06-04T19:32:36.676Z,18.70
2018-06-04T19:35:12.050Z,18.80
2018-06-04T19:37:47.420Z,18.80
2018-06-04T19:40:23.758Z,18.60
2018-06-04T19:42:59.104Z,18.60
2018-06-04T19:45:34.717Z,18.30
2018-06-04T19:48:09.579Z,18.30
2018-06-04T19:50:44.615Z,18.30
2018-06-04T19:55:55.159Z,17.90
2018-06-04T19:58:30.541Z,17.90
2018-06-04T20:01:05.517Z,17.80
2018-06-04T20:03:41.122Z,17.70
2018-06-04T20:06:23.224Z,17.70
2018-06-04T20:09:02.740Z,17.70
2018-06-04T20:11:38.333Z,17.60
2018-06-04T20:14:13.448Z,17.80
2018-06-04T20:16:49.484Z,17.80
2018-06-04T20:19:24.326Z,17.70
2018-06-04T20:21:59.339Z,17.70
2018-06-04T20:24:34.306Z,17.70
2018-06-04T20:27:09.545Z,17.50
2018-06-04T20:29:44.561Z,17.60
2018-06-04T20:32:19.712Z,17.60
2018-06-04T20:34:54.752Z,17.50
2018-06-04T20:37:29.927Z,17.50
2018-06-04T20:40:05.669Z,17.30
2018-06-04T20:42:41.191Z,17.40
2018-06-04T20:45:19.406Z,17.40
2018-06-04T20:47:57.510Z,17.40
2018-06-04T20:50:32.950Z,17.50
2018-06-04T20:53:08.571Z,17.60
2018-06-04T20:55:43.498Z,17.60
2018-06-04T20:58:20.122Z,17.60
2018-06-04T21:00:55.164Z,17.60
2018-06-04T21:03:30.280Z,18.00
2018-06-04T21:06:12.571Z,17.90
2018-06-04T21:08:47.959Z,17.80
2018-06-04T21:11:24.468Z,18.00
2018-06-04T21:13:59.157Z,17.80
2018-06-04T21:16:34.598Z,18.00
2018-06-04T21:19:10.217Z,17.80
2018-06-04T21:21:45.457Z,17.90
2018-06-04T21:26:55.155Z,18.20
2018-06-04T21:29:30.377Z,18.20
2018-06-04T21:32:05.836Z,18.20
2018-06-04T21:34:41.489Z,17.90
2018-06-04T21:37:16.806Z,17.70
2018-06-04T21:39:52.405Z,17.70
2018-06-04T21:42:27.826Z,17.60
2018-06-04T21:47:40.108Z,17.60
2018-06-04T21:50:15.968Z,17.70
2018-06-04T21:52:51.195Z,17.70
2018-06-04T21:55:27.467Z,17.60
2018-06-04T21:58:03.424Z,17.60
2018-06-04T22:00:38.967Z,17.60
2018-06-04T22:03:18.715Z,17.50
2018-06-04T22:05:54.052Z,17.60
2018-06-04T22:08:29.838Z,17.60
2018-06-04T22:11:05.246Z,17.70
2018-06-04T22:13:40.496Z,17.50
2018-06-04T22:16:15.591Z,17.50
2018-06-04T22:18:51.575Z,17.50
2018-06-04T22:21:26.885Z,17.40
2018-06-04T22:24:02.580Z,17.40
2018-06-04T22:26:37.930Z,17.40
2018-06-04T22:29:13.357Z,17.50
2018-06-04T22:31:49.838Z,17.50
2018-06-04T22:34:26.777Z,17.40
2018-06-04T22:37:02.336Z,17.40
2018-06-04T22:39:37.546Z,17.40
2018-06-04T22:42:13.939Z,17.40
2018-06-04T22:44:49.742Z,17.40
2018-06-04T22:47:25.118Z,17.40
2018-06-04T22:59:46.555Z,17.30
2018-06-04T23:02:21.654Z,17.30
2018-06-04T23:04:57.449Z,17.30
2018-06-04T23:07:32.836Z,17.20
2018-06-04T23:10:08.741Z,17.20
2018-06-04T23:12:44.477Z,17.30
2018-06-04T23:15:19.782Z,17.20
2018-06-04T23:17:54.974Z,17.20
2018-06-04T23:20:30.872Z,17.20
2018-06-04T23:23:06.210Z,17.10
2018-06-04T23:25:41.711Z,17.20
2018-06-04T23:28:17.197Z,17.10
2018-06-04T23:30:52.539Z,17.10
2018-06-04T23:33:28.015Z,17.10
2018-06-04T23:36:11.472Z,17.10
2018-06-04T23:38:49.577Z,17.10
2018-06-04T23:41:25.548Z,17.10
2018-06-04T23:44:01.120Z,17.00
2018-06-04T23:46:36.490Z,17.40
2018-06-04T23:49:13.243Z,18.00
2018-06-04T23:51:50.394Z,17.70
2018-06-04T23:54:29.648Z,17.30
2018-06-04T23:57:05.483Z,17.20
2018-06-04T23:59:41.097Z,17.40
